sensor_id;sensor_type;location;lat;lon;timestamp;P1;durP1;ratioP1;P2;durP2;ratioP2
3443;SDS011;1736;52.068;6.968;2022-07-29T00:00:44;3.10;;;1.70;;
3443;SDS011;1736;52.068;6.968;2022-07-29T00:03:11;2.57;;;1.70;;
3443;SDS011;1736;52.068;6.968;2022-07-29T00:05:38;2.60;;;1.70;;
3443;SDS011;1736;52.068;6.968;2022-07-29T00:08:04;2.30;;;1.70;;
3443;SDS011;1736;52.068;6.968;2022-07-29T00:10:31;2.60;;;1.70;;
3443;SDS011;1736;52.068;6.968;2022-07-29T00:12:59;2.40;;;1.70;;
3443;SDS011;1736;52.068;6.968;2022-07-29T00:15:26;2.93;;;1.60;;
3443;SDS011;1736;52.068;6.968;2022-07-29T00:17:52;7.50;;;1.80;;
3443;SDS011;1736;52.068;6.968;2022-07-29T00:20:19;1.60;;;1.50;;
3443;SDS011;1736;52.068;6.968;2022-07-29T00:22:46;2.80;;;1.50;;
3443;SDS011;1736;52.068;6.968;2022-07-29T00:25:12;3.80;;;1.53;;
3443;SDS011;1736;52.068;6.968;2022-07-29T00:27:39;4.67;;;1.90;;
3443;SDS011;1736;52.068;6.968;2022-07-29T00:30:07;4.47;;;1.80;;
3443;SDS011;1736;52.068;6.968;2022-07-29T00:32:34;2.13;;;1.93;;
3443;SDS011;1736;52.068;6.968;2022-07-29T00:35:01;6.50;;;1.40;;
3443;SDS011;1736;52.068;6.968;2022-07-29T00:37:45;2.67;;;1.50;;
3443;SDS011;1736;52.068;6.968;2022-07-29T00:40:12;1.70;;;1.60;;
3443;SDS011;1736;52.068;6.968;2022-07-29T00:42:41;1.83;;;1.50;;
3443;SDS011;1736;52.068;6.968;2022-07-29T00:45:10;1.80;;;1.70;;
3443;SDS011;1736;52.068;6.968;2022-07-29T00:47:38;2.80;;;1.77;;
3443;SDS011;1736;52.068;6.968;2022-07-29T00:50:07;2.70;;;1.50;;
3443;SDS011;1736;52.068;6.968;2022-07-29T00:52:35;2.80;;;1.57;;
3443;SDS011;1736;52.068;6.968;2022-07-29T00:55:03;1.70;;;1.60;;
3443;SDS011;1736;52.068;6.968;2022-07-29T00:57:31;4.33;;;2.00;;
3443;SDS011;1736;52.068;6.968;2022-07-29T00:59:58;12.07;;;2.50;;
3443;SDS011;1736;52.068;6.968;2022-07-29T01:02:25;3.53;;;2.07;;
3443;SDS011;1736;52.068;6.968;2022-07-29T01:04:52;3.73;;;1.60;;
3443;SDS011;1736;52.068;6.968;2022-07-29T01:07:20;1.90;;;1.80;;
3443;SDS011;1736;52.068;6.968;2022-07-29T01:09:46;3.60;;;1.90;;
3443;SDS011;1736;52.068;6.968;2022-07-29T01:12:14;2.03;;;1.60;;
3443;SDS011;1736;52.068;6.968;2022-07-29T01:14:43;2.10;;;1.73;;
3443;SDS011;1736;52.068;6.968;2022-07-29T01:17:10;2.80;;;1.70;;
3443;SDS011;1736;52.068;6.968;2022-07-29T01:19:48;4.13;;;1.60;;
3443;SDS011;1736;52.068;6.968;2022-07-29T01:22:23;3.23;;;2.00;;
3443;SDS011;1736;52.068;6.968;2022-07-29T01:27:58;3.60;;;2.20;;
3443;SDS011;1736;52.068;6.968;2022-07-29T01:30:35;2.13;;;1.93;;
3443;SDS011;1736;52.068;6.968;2022-07-29T01:33:06;1.93;;;1.73;;
3443;SDS011;1736;52.068;6.968;2022-07-29T01:35:36;3.53;;;2.10;;
3443;SDS011;1736;52.068;6.968;2022-07-29T01:38:06;4.20;;;2.23;;
3443;SDS011;1736;52.068;6.968;2022-07-29T01:40:38;2.53;;;2.20;;
3443;SDS011;1736;52.068;6.968;2022-07-29T01:43:09;3.30;;;2.10;;
3443;SDS011;1736;52.068;6.968;2022-07-29T01:45:43;6.50;;;1.90;;
3443;SDS011;1736;52.068;6.968;2022-07-29T01:48:13;2.20;;;2.00;;
3443;SDS011;1736;52.068;6.968;2022-07-29T01:50:46;6.73;;;2.57;;
3443;SDS011;1736;52.068;6.968;2022-07-29T01:53:16;5.30;;;2.17;;
3443;SDS011;1736;52.068;6.968;2022-07-29T01:55:51;2.03;;;1.93;;
3443;SDS011;1736;52.068;6.968;2022-07-29T01:58:20;2.10;;;1.90;;
3443;SDS011;1736;52.068;6.968;2022-07-29T02:00:50;3.43;;;2.70;;
3443;SDS011;1736;52.068;6.968;2022-07-29T02:03:18;11.07;;;1.90;;
3443;SDS011;1736;52.068;6.968;2022-07-29T02:05:46;4.33;;;2.50;;
3443;SDS011;1736;52.068;6.968;2022-07-29T02:08:16;7.30;;;1.77;;
3443;SDS011;1736;52.068;6.968;2022-07-29T02:10:45;4.20;;;1.83;;
3443;SDS011;1736;52.068;6.968;2022-07-29T02:13:13;4.73;;;1.93;;
3443;SDS011;1736;52.068;6.968;2022-07-29T02:15:43;4.20;;;2.23;;
3443;SDS011;1736;52.068;6.968;2022-07-29T02:18:14;2.10;;;2.00;;
3443;SDS011;1736;52.068;6.968;2022-07-29T02:20:42;2.47;;;2.27;;
3443;SDS011;1736;52.068;6.968;2022-07-29T02:23:12;3.80;;;2.17;;
3443;SDS011;1736;52.068;6.968;2022-07-29T02:25:43;4.70;;;2.37;;
3443;SDS011;1736;52.068;6.968;2022-07-29T02:28:10;3.27;;;2.13;;
3443;SDS011;1736;52.068;6.968;2022-07-29T02:30:39;2.30;;;2.10;;
3443;SDS011;1736;52.068;6.968;2022-07-29T02:33:08;3.10;;;2.23;;
3443;SDS011;1736;52.068;6.968;2022-07-29T02:35:37;2.20;;;2.00;;
3443;SDS011;1736;52.068;6.968;2022-07-29T02:38:06;11.13;;;2.50;;
3443;SDS011;1736;52.068;6.968;2022-07-29T02:40:52;3.00;;;2.37;;
3443;SDS011;1736;52.068;6.968;2022-07-29T02:43:20;2.47;;;2.10;;
3443;SDS011;1736;52.068;6.968;2022-07-29T02:45:49;4.37;;;2.57;;
3443;SDS011;1736;52.068;6.968;2022-07-29T02:48:19;2.53;;;2.10;;
3443;SDS011;1736;52.068;6.968;2022-07-29T02:50:56;2.87;;;2.60;;
3443;SDS011;1736;52.068;6.968;2022-07-29T02:53:31;2.57;;;2.10;;
3443;SDS011;1736;52.068;6.968;2022-07-29T02:56:01;6.73;;;2.57;;
3443;SDS011;1736;52.068;6.968;2022-07-29T02:58:33;4.10;;;2.40;;
3443;SDS011;1736;52.068;6.968;2022-07-29T03:01:04;4.00;;;2.10;;
3443;SDS011;1736;52.068;6.968;2022-07-29T03:03:37;4.43;;;2.57;;
3443;SDS011;1736;52.068;6.968;2022-07-29T03:06:06;2.67;;;2.47;;
3443;SDS011;1736;52.068;6.968;2022-07-29T03:08:34;2.73;;;2.27;;
3443;SDS011;1736;52.068;6.968;2022-07-29T03:11:01;9.33;;;2.53;;
3443;SDS011;1736;52.068;6.968;2022-07-29T03:13:29;6.63;;;2.50;;
3443;SDS011;1736;52.068;6.968;2022-07-29T03:15:57;6.37;;;2.80;;
3443;SDS011;1736;52.068;6.968;2022-07-29T03:18:24;4.30;;;2.63;;
3443;SDS011;1736;52.068;6.968;2022-07-29T03:20:51;3.80;;;2.63;;
3443;SDS011;1736;52.068;6.968;2022-07-29T03:23:19;5.40;;;2.70;;
3443;SDS011;1736;52.068;6.968;2022-07-29T03:25:48;4.50;;;2.37;;
3443;SDS011;1736;52.068;6.968;2022-07-29T03:28:15;6.23;;;2.60;;
3443;SDS011;1736;52.068;6.968;2022-07-29T03:30:42;3.73;;;2.60;;
3443;SDS011;1736;52.068;6.968;2022-07-29T03:33:09;2.70;;;2.40;;
3443;SDS011;1736;52.068;6.968;2022-07-29T03:35:35;2.70;;;2.27;;
3443;SDS011;1736;52.068;6.968;2022-07-29T03:38:01;2.17;;;2.03;;
3443;SDS011;1736;52.068;6.968;2022-07-29T03:40:30;8.50;;;2.13;;
3443;SDS011;1736;52.068;6.968;2022-07-29T03:42:59;2.63;;;2.43;;
3443;SDS011;1736;52.068;6.968;2022-07-29T03:45:28;7.60;;;2.87;;
3443;SDS011;1736;52.068;6.968;2022-07-29T03:47:56;3.80;;;2.50;;
3443;SDS011;1736;52.068;6.968;2022-07-29T03:50:27;2.50;;;2.27;;
3443;SDS011;1736;52.068;6.968;2022-07-29T03:52:56;3.17;;;2.30;;
3443;SDS011;1736;52.068;6.968;2022-07-29T03:55:23;2.50;;;2.30;;
3443;SDS011;1736;52.068;6.968;2022-07-29T03:57:51;3.80;;;2.43;;
3443;SDS011;1736;52.068;6.968;2022-07-29T04:00:18;2.70;;;2.20;;
3443;SDS011;1736;52.068;6.968;2022-07-29T04:02:45;2.93;;;2.63;;
3443;SDS011;1736;52.068;6.968;2022-07-29T04:05:13;2.60;;;2.20;;
3443;SDS011;1736;52.068;6.968;2022-07-29T04:07:43;4.60;;;2.47;;
3443;SDS011;1736;52.068;6.968;2022-07-29T04:10:10;3.10;;;2.80;;
3443;SDS011;1736;52.068;6.968;2022-07-29T04:12:36;3.50;;;2.60;;
3443;SDS011;1736;52.068;6.968;2022-07-29T04:15:05;4.07;;;2.70;;
3443;SDS011;1736;52.068;6.968;2022-07-29T04:17:32;4.20;;;2.70;;
3443;SDS011;1736;52.068;6.968;2022-07-29T04:19:58;3.67;;;2.67;;
3443;SDS011;1736;52.068;6.968;2022-07-29T04:22:25;3.30;;;2.90;;
3443;SDS011;1736;52.068;6.968;2022-07-29T04:24:52;3.23;;;2.33;;
3443;SDS011;1736;52.068;6.968;2022-07-29T04:27:18;2.90;;;2.50;;
3443;SDS011;1736;52.068;6.968;2022-07-29T04:29:45;3.13;;;2.83;;
3443;SDS011;1736;52.068;6.968;2022-07-29T04:32:12;4.40;;;2.93;;
3443;SDS011;1736;52.068;6.968;2022-07-29T04:34:39;3.60;;;2.80;;
3443;SDS011;1736;52.068;6.968;2022-07-29T04:37:06;15.70;;;2.80;;
3443;SDS011;1736;52.068;6.968;2022-07-29T04:39:32;3.80;;;2.80;;
3443;SDS011;1736;52.068;6.968;2022-07-29T04:41:59;5.60;;;3.00;;
3443;SDS011;1736;52.068;6.968;2022-07-29T04:44:25;6.57;;;3.00;;
3443;SDS011;1736;52.068;6.968;2022-07-29T04:46:52;11.53;;;2.70;;
3443;SDS011;1736;52.068;6.968;2022-07-29T04:49:20;4.63;;;2.60;;
3443;SDS011;1736;52.068;6.968;2022-07-29T04:51:47;3.93;;;2.70;;
3443;SDS011;1736;52.068;6.968;2022-07-29T04:54:13;2.97;;;2.57;;
3443;SDS011;1736;52.068;6.968;2022-07-29T04:56:39;14.03;;;2.30;;
3443;SDS011;1736;52.068;6.968;2022-07-29T04:59:06;4.30;;;2.87;;
3443;SDS011;1736;52.068;6.968;2022-07-29T05:01:33;3.07;;;2.60;;
3443;SDS011;1736;52.068;6.968;2022-07-29T05:04:00;3.70;;;2.70;;
3443;SDS011;1736;52.068;6.968;2022-07-29T05:06:28;6.27;;;2.70;;
3443;SDS011;1736;52.068;6.968;2022-07-29T05:08:54;3.37;;;2.80;;
3443;SDS011;1736;52.068;6.968;2022-07-29T05:11:21;5.63;;;2.70;;
3443;SDS011;1736;52.068;6.968;2022-07-29T05:13:47;4.07;;;2.90;;
3443;SDS011;1736;52.068;6.968;2022-07-29T05:16:14;3.67;;;2.57;;
3443;SDS011;1736;52.068;6.968;2022-07-29T05:18:40;4.30;;;2.43;;
3443;SDS011;1736;52.068;6.968;2022-07-29T05:21:07;5.97;;;2.90;;
3443;SDS011;1736;52.068;6.968;2022-07-29T05:23:35;2.60;;;2.40;;
3443;SDS011;1736;52.068;6.968;2022-07-29T05:26:01;3.13;;;2.73;;
3443;SDS011;1736;52.068;6.968;2022-07-29T05:28:28;3.33;;;2.60;;
3443;SDS011;1736;52.068;6.968;2022-07-29T05:30:54;4.00;;;2.80;;
3443;SDS011;1736;52.068;6.968;2022-07-29T05:33:21;2.90;;;2.70;;
3443;SDS011;1736;52.068;6.968;2022-07-29T05:35:47;3.70;;;2.70;;
3443;SDS011;1736;52.068;6.968;2022-07-29T05:38:14;5.73;;;3.10;;
3443;SDS011;1736;52.068;6.968;2022-07-29T05:40:42;5.50;;;3.30;;
3443;SDS011;1736;52.068;6.968;2022-07-29T05:43:08;10.13;;;3.37;;
3443;SDS011;1736;52.068;6.968;2022-07-29T05:45:35;4.57;;;2.87;;
3443;SDS011;1736;52.068;6.968;2022-07-29T05:48:02;3.30;;;2.93;;
3443;SDS011;1736;52.068;6.968;2022-07-29T05:50:28;4.30;;;2.97;;
3443;SDS011;1736;52.068;6.968;2022-07-29T05:52:55;5.27;;;2.80;;
3443;SDS011;1736;52.068;6.968;2022-07-29T05:55:21;3.60;;;2.97;;
3443;SDS011;1736;52.068;6.968;2022-07-29T05:57:49;3.00;;;2.50;;
3443;SDS011;1736;52.068;6.968;2022-07-29T06:00:18;3.43;;;2.50;;
3443;SDS011;1736;52.068;6.968;2022-07-29T06:02:44;5.00;;;3.17;;
3443;SDS011;1736;52.068;6.968;2022-07-29T06:05:11;3.53;;;2.77;;
3443;SDS011;1736;52.068;6.968;2022-07-29T06:07:37;3.33;;;2.80;;
3443;SDS011;1736;52.068;6.968;2022-07-29T06:10:04;2.83;;;2.63;;
3443;SDS011;1736;52.068;6.968;2022-07-29T06:12:31;4.17;;;2.67;;
3443;SDS011;1736;52.068;6.968;2022-07-29T06:14:59;6.80;;;3.00;;
3443;SDS011;1736;52.068;6.968;2022-07-29T06:17:25;3.53;;;2.40;;
3443;SDS011;1736;52.068;6.968;2022-07-29T06:19:52;4.77;;;3.23;;
3443;SDS011;1736;52.068;6.968;2022-07-29T06:22:19;3.43;;;2.60;;
3443;SDS011;1736;52.068;6.968;2022-07-29T06:24:45;5.00;;;2.87;;
3443;SDS011;1736;52.068;6.968;2022-07-29T06:27:11;4.93;;;3.40;;
3443;SDS011;1736;52.068;6.968;2022-07-29T06:29:38;3.77;;;2.97;;
3443;SDS011;1736;52.068;6.968;2022-07-29T06:32:06;6.63;;;3.50;;
3443;SDS011;1736;52.068;6.968;2022-07-29T06:34:34;6.30;;;3.37;;
3443;SDS011;1736;52.068;6.968;2022-07-29T06:37:00;8.63;;;3.53;;
3443;SDS011;1736;52.068;6.968;2022-07-29T06:39:33;4.03;;;3.63;;
3443;SDS011;1736;52.068;6.968;2022-07-29T06:42:00;4.33;;;3.73;;
3443;SDS011;1736;52.068;6.968;2022-07-29T06:44:26;3.77;;;3.10;;
3443;SDS011;1736;52.068;6.968;2022-07-29T06:46:53;6.97;;;3.83;;
3443;SDS011;1736;52.068;6.968;2022-07-29T06:49:21;7.33;;;3.60;;
3443;SDS011;1736;52.068;6.968;2022-07-29T06:51:48;5.87;;;3.13;;
3443;SDS011;1736;52.068;6.968;2022-07-29T06:54:14;4.47;;;4.07;;
3443;SDS011;1736;52.068;6.968;2022-07-29T06:56:41;4.70;;;3.93;;
3443;SDS011;1736;52.068;6.968;2022-07-29T06:59:08;8.33;;;4.40;;
3443;SDS011;1736;52.068;6.968;2022-07-29T07:01:36;11.00;;;4.30;;
3443;SDS011;1736;52.068;6.968;2022-07-29T07:04:04;4.67;;;3.73;;
3443;SDS011;1736;52.068;6.968;2022-07-29T07:06:32;7.90;;;4.80;;
3443;SDS011;1736;52.068;6.968;2022-07-29T07:08:58;7.97;;;4.20;;
3443;SDS011;1736;52.068;6.968;2022-07-29T07:11:25;4.00;;;3.67;;
3443;SDS011;1736;52.068;6.968;2022-07-29T07:13:52;6.30;;;3.90;;
3443;SDS011;1736;52.068;6.968;2022-07-29T07:16:18;5.67;;;4.20;;
3443;SDS011;1736;52.068;6.968;2022-07-29T07:18:45;8.33;;;3.87;;
3443;SDS011;1736;52.068;6.968;2022-07-29T07:21:12;5.43;;;4.00;;
3443;SDS011;1736;52.068;6.968;2022-07-29T07:23:40;7.43;;;3.90;;
3443;SDS011;1736;52.068;6.968;2022-07-29T07:26:06;6.73;;;3.90;;
3443;SDS011;1736;52.068;6.968;2022-07-29T07:28:33;6.10;;;4.03;;
3443;SDS011;1736;52.068;6.968;2022-07-29T07:30:59;7.23;;;4.27;;
3443;SDS011;1736;52.068;6.968;2022-07-29T07:33:26;4.37;;;3.80;;
3443;SDS011;1736;52.068;6.968;2022-07-29T07:35:52;4.97;;;4.40;;
3443;SDS011;1736;52.068;6.968;2022-07-29T07:38:19;5.70;;;3.90;;
3443;SDS011;1736;52.068;6.968;2022-07-29T07:40:46;12.30;;;4.77;;
3443;SDS011;1736;52.068;6.968;2022-07-29T07:43:13;9.03;;;4.43;;
3443;SDS011;1736;52.068;6.968;2022-07-29T07:45:39;9.03;;;4.90;;
3443;SDS011;1736;52.068;6.968;2022-07-29T07:48:06;5.20;;;4.70;;
3443;SDS011;1736;52.068;6.968;2022-07-29T07:50:35;12.17;;;4.43;;
3443;SDS011;1736;52.068;6.968;2022-07-29T07:53:01;5.40;;;3.87;;
3443;SDS011;1736;52.068;6.968;2022-07-29T07:55:28;6.13;;;3.73;;
3443;SDS011;1736;52.068;6.968;2022-07-29T07:57:56;5.63;;;4.20;;
3443;SDS011;1736;52.068;6.968;2022-07-29T08:00:22;6.60;;;4.10;;
3443;SDS011;1736;52.068;6.968;2022-07-29T08:02:49;3.80;;;3.50;;
3443;SDS011;1736;52.068;6.968;2022-07-29T08:05:16;15.43;;;3.87;;
3443;SDS011;1736;52.068;6.968;2022-07-29T08:07:43;4.40;;;4.00;;
3443;SDS011;1736;52.068;6.968;2022-07-29T08:10:10;6.90;;;4.50;;
3443;SDS011;1736;52.068;6.968;2022-07-29T08:12:37;6.30;;;4.70;;
3443;SDS011;1736;52.068;6.968;2022-07-29T08:15:06;8.47;;;4.67;;
3443;SDS011;1736;52.068;6.968;2022-07-29T08:17:33;4.37;;;3.97;;
3443;SDS011;1736;52.068;6.968;2022-07-29T08:20:00;6.10;;;4.30;;
3443;SDS011;1736;52.068;6.968;2022-07-29T08:22:27;8.10;;;4.50;;
3443;SDS011;1736;52.068;6.968;2022-07-29T08:24:53;7.33;;;4.57;;
3443;SDS011;1736;52.068;6.968;2022-07-29T08:27:21;7.87;;;4.50;;
3443;SDS011;1736;52.068;6.968;2022-07-29T08:29:47;6.63;;;4.20;;
3443;SDS011;1736;52.068;6.968;2022-07-29T08:32:15;6.47;;;4.60;;
3443;SDS011;1736;52.068;6.968;2022-07-29T08:34:42;6.70;;;4.30;;
3443;SDS011;1736;52.068;6.968;2022-07-29T08:37:11;10.97;;;4.60;;
3443;SDS011;1736;52.068;6.968;2022-07-29T08:39:38;5.03;;;4.53;;
3443;SDS011;1736;52.068;6.968;2022-07-29T08:42:05;6.63;;;4.37;;
3443;SDS011;1736;52.068;6.968;2022-07-29T08:44:31;9.60;;;4.40;;
3443;SDS011;1736;52.068;6.968;2022-07-29T08:46:59;7.50;;;5.30;;
3443;SDS011;1736;52.068;6.968;2022-07-29T08:49:27;11.03;;;5.23;;
3443;SDS011;1736;52.068;6.968;2022-07-29T08:51:53;14.80;;;5.13;;
3443;SDS011;1736;52.068;6.968;2022-07-29T08:54:23;8.90;;;5.00;;
3443;SDS011;1736;52.068;6.968;2022-07-29T08:56:50;12.10;;;5.10;;
3443;SDS011;1736;52.068;6.968;2022-07-29T08:59:17;10.87;;;5.70;;
3443;SDS011;1736;52.068;6.968;2022-07-29T09:01:46;7.40;;;5.00;;
3443;SDS011;1736;52.068;6.968;2022-07-29T09:04:13;5.50;;;5.00;;
3443;SDS011;1736;52.068;6.968;2022-07-29T09:06:45;8.23;;;5.20;;
3443;SDS011;1736;52.068;6.968;2022-07-29T09:09:14;7.00;;;5.20;;
3443;SDS011;1736;52.068;6.968;2022-07-29T09:11:41;10.10;;;5.57;;
3443;SDS011;1736;52.068;6.968;2022-07-29T09:14:08;10.33;;;5.67;;
3443;SDS011;1736;52.068;6.968;2022-07-29T09:16:47;10.43;;;5.93;;
3443;SDS011;1736;52.068;6.968;2022-07-29T09:19:20;8.20;;;5.47;;
3443;SDS011;1736;52.068;6.968;2022-07-29T09:21:49;9.37;;;5.90;;
3443;SDS011;1736;52.068;6.968;2022-07-29T09:24:36;7.77;;;6.23;;
3443;SDS011;1736;52.068;6.968;2022-07-29T09:27:08;9.03;;;6.20;;
3443;SDS011;1736;52.068;6.968;2022-07-29T09:29:37;8.60;;;5.87;;
3443;SDS011;1736;52.068;6.968;2022-07-29T09:32:05;9.53;;;6.50;;
3443;SDS011;1736;52.068;6.968;2022-07-29T09:34:34;8.97;;;6.00;;
3443;SDS011;1736;52.068;6.968;2022-07-29T09:37:02;6.90;;;6.20;;
3443;SDS011;1736;52.068;6.968;2022-07-29T09:39:30;8.77;;;6.90;;
3443;SDS011;1736;52.068;6.968;2022-07-29T09:41:59;14.63;;;6.60;;
3443;SDS011;1736;52.068;6.968;2022-07-29T09:44:27;9.50;;;5.93;;
3443;SDS011;1736;52.068;6.968;2022-07-29T09:47:07;11.87;;;6.43;;
3443;SDS011;1736;52.068;6.968;2022-07-29T09:49:34;11.10;;;6.47;;
3443;SDS011;1736;52.068;6.968;2022-07-29T09:52:07;10.53;;;7.40;;
3443;SDS011;1736;52.068;6.968;2022-07-29T09:54:36;8.77;;;7.17;;
3443;SDS011;1736;52.068;6.968;2022-07-29T09:57:03;14.40;;;7.27;;
3443;SDS011;1736;52.068;6.968;2022-07-29T09:59:31;9.60;;;7.10;;
3443;SDS011;1736;52.068;6.968;2022-07-29T10:01:59;8.77;;;7.23;;
3443;SDS011;1736;52.068;6.968;2022-07-29T10:04:36;10.73;;;7.77;;
3443;SDS011;1736;52.068;6.968;2022-07-29T10:07:04;10.23;;;8.20;;
3443;SDS011;1736;52.068;6.968;2022-07-29T10:09:32;7.83;;;7.00;;
3443;SDS011;1736;52.068;6.968;2022-07-29T10:12:02;10.47;;;7.93;;
3443;SDS011;1736;52.068;6.968;2022-07-29T10:14:30;12.07;;;7.43;;
3443;SDS011;1736;52.068;6.968;2022-07-29T10:16:57;10.77;;;7.60;;
3443;SDS011;1736;52.068;6.968;2022-07-29T10:19:25;13.30;;;7.83;;
3443;SDS011;1736;52.068;6.968;2022-07-29T10:21:51;10.53;;;7.87;;
3443;SDS011;1736;52.068;6.968;2022-07-29T10:24:18;12.37;;;7.80;;
3443;SDS011;1736;52.068;6.968;2022-07-29T10:26:48;14.80;;;8.23;;
3443;SDS011;1736;52.068;6.968;2022-07-29T10:29:15;9.70;;;7.87;;
3443;SDS011;1736;52.068;6.968;2022-07-29T10:31:43;12.27;;;8.20;;
3443;SDS011;1736;52.068;6.968;2022-07-29T10:34:17;9.47;;;7.63;;
3443;SDS011;1736;52.068;6.968;2022-07-29T10:36:57;11.60;;;7.00;;
3443;SDS011;1736;52.068;6.968;2022-07-29T10:39:39;12.13;;;7.63;;
3443;SDS011;1736;52.068;6.968;2022-07-29T10:42:18;12.47;;;7.73;;
3443;SDS011;1736;52.068;6.968;2022-07-29T10:44:48;12.50;;;8.73;;
3443;SDS011;1736;52.068;6.968;2022-07-29T10:47:21;13.00;;;7.93;;
3443;SDS011;1736;52.068;6.968;2022-07-29T10:49:56;13.00;;;8.10;;
3443;SDS011;1736;52.068;6.968;2022-07-29T10:52:24;9.20;;;7.03;;
3443;SDS011;1736;52.068;6.968;2022-07-29T10:54:53;9.97;;;7.27;;
3443;SDS011;1736;52.068;6.968;2022-07-29T10:57:25;7.90;;;7.07;;
3443;SDS011;1736;52.068;6.968;2022-07-29T11:02:58;10.63;;;7.20;;
3443;SDS011;1736;52.068;6.968;2022-07-29T11:05:25;9.50;;;7.20;;
3443;SDS011;1736;52.068;6.968;2022-07-29T11:10:45;9.77;;;7.23;;
3443;SDS011;1736;52.068;6.968;2022-07-29T11:13:13;14.87;;;7.47;;
3443;SDS011;1736;52.068;6.968;2022-07-29T11:16:16;14.40;;;7.43;;
3443;SDS011;1736;52.068;6.968;2022-07-29T11:21:48;10.00;;;7.20;;
3443;SDS011;1736;52.068;6.968;2022-07-29T11:24:16;12.17;;;7.30;;
3443;SDS011;1736;52.068;6.968;2022-07-29T11:26:45;13.27;;;7.33;;
3443;SDS011;1736;52.068;6.968;2022-07-29T11:29:34;10.37;;;6.70;;
3443;SDS011;1736;52.068;6.968;2022-07-29T11:32:10;10.37;;;7.17;;
3443;SDS011;1736;52.068;6.968;2022-07-29T11:34:39;9.60;;;6.83;;
3443;SDS011;1736;52.068;6.968;2022-07-29T11:37:22;7.73;;;6.30;;
3443;SDS011;1736;52.068;6.968;2022-07-29T11:42:44;10.20;;;6.60;;
3443;SDS011;1736;52.068;6.968;2022-07-29T11:45:17;8.63;;;6.60;;
3443;SDS011;1736;52.068;6.968;2022-07-29T11:47:57;10.30;;;6.53;;
3443;SDS011;1736;52.068;6.968;2022-07-29T11:50:29;10.17;;;6.23;;
3443;SDS011;1736;52.068;6.968;2022-07-29T11:52:58;11.10;;;6.03;;
3443;SDS011;1736;52.068;6.968;2022-07-29T11:55:26;8.97;;;7.23;;
3443;SDS011;1736;52.068;6.968;2022-07-29T11:57:54;10.40;;;7.13;;
3443;SDS011;1736;52.068;6.968;2022-07-29T12:00:27;10.83;;;6.63;;
3443;SDS011;1736;52.068;6.968;2022-07-29T12:02:56;8.40;;;6.37;;
3443;SDS011;1736;52.068;6.968;2022-07-29T12:05:30;9.20;;;6.60;;
3443;SDS011;1736;52.068;6.968;2022-07-29T12:08:08;9.23;;;6.13;;
3443;SDS011;1736;52.068;6.968;2022-07-29T12:10:37;8.40;;;6.00;;
3443;SDS011;1736;52.068;6.968;2022-07-29T12:13:04;11.43;;;6.40;;
3443;SDS011;1736;52.068;6.968;2022-07-29T12:15:32;11.93;;;6.10;;
3443;SDS011;1736;52.068;6.968;2022-07-29T12:18:05;8.47;;;5.77;;
3443;SDS011;1736;52.068;6.968;2022-07-29T12:20:35;9.00;;;5.83;;
3443;SDS011;1736;52.068;6.968;2022-07-29T12:23:04;7.27;;;5.43;;
3443;SDS011;1736;52.068;6.968;2022-07-29T12:25:33;10.53;;;6.00;;
3443;SDS011;1736;52.068;6.968;2022-07-29T12:28:03;9.50;;;5.70;;
3443;SDS011;1736;52.068;6.968;2022-07-29T12:30:36;6.40;;;5.60;;
3443;SDS011;1736;52.068;6.968;2022-07-29T12:33:10;11.53;;;5.60;;
3443;SDS011;1736;52.068;6.968;2022-07-29T12:35:37;10.70;;;5.17;;
3443;SDS011;1736;52.068;6.968;2022-07-29T12:38:05;8.13;;;5.07;;
3443;SDS011;1736;52.068;6.968;2022-07-29T12:40:31;12.97;;;5.50;;
3443;SDS011;1736;52.068;6.968;2022-07-29T12:43:04;5.90;;;5.10;;
3443;SDS011;1736;52.068;6.968;2022-07-29T12:45:32;7.43;;;5.00;;
3443;SDS011;1736;52.068;6.968;2022-07-29T12:48:00;7.10;;;4.73;;
3443;SDS011;1736;52.068;6.968;2022-07-29T12:50:26;8.60;;;5.17;;
3443;SDS011;1736;52.068;6.968;2022-07-29T12:52:53;6.10;;;4.60;;
3443;SDS011;1736;52.068;6.968;2022-07-29T12:58:04;7.17;;;5.13;;
3443;SDS011;1736;52.068;6.968;2022-07-29T13:00:31;6.87;;;4.53;;
3443;SDS011;1736;52.068;6.968;2022-07-29T13:02:58;13.80;;;5.07;;
3443;SDS011;1736;52.068;6.968;2022-07-29T13:05:38;10.17;;;5.40;;
3443;SDS011;1736;52.068;6.968;2022-07-29T13:08:10;9.37;;;5.50;;
3443;SDS011;1736;52.068;6.968;2022-07-29T13:10:40;9.93;;;4.40;;
3443;SDS011;1736;52.068;6.968;2022-07-29T13:13:08;5.20;;;4.33;;
3443;SDS011;1736;52.068;6.968;2022-07-29T13:15:35;7.60;;;5.20;;
3443;SDS011;1736;52.068;6.968;2022-07-29T13:18:04;12.73;;;5.07;;
3443;SDS011;1736;52.068;6.968;2022-07-29T13:20:31;4.60;;;4.20;;
3443;SDS011;1736;52.068;6.968;2022-07-29T13:22:58;7.17;;;5.57;;
3443;SDS011;1736;52.068;6.968;2022-07-29T13:25:27;4.47;;;4.00;;
3443;SDS011;1736;52.068;6.968;2022-07-29T13:27:55;8.53;;;5.20;;
3443;SDS011;1736;52.068;6.968;2022-07-29T13:30:22;9.47;;;5.10;;
3443;SDS011;1736;52.068;6.968;2022-07-29T13:32:50;10.47;;;4.90;;
3443;SDS011;1736;52.068;6.968;2022-07-29T13:35:18;5.73;;;4.87;;
3443;SDS011;1736;52.068;6.968;2022-07-29T13:37:45;8.00;;;4.83;;
3443;SDS011;1736;52.068;6.968;2022-07-29T13:40:12;10.43;;;5.33;;
3443;SDS011;1736;52.068;6.968;2022-07-29T13:42:39;8.70;;;4.23;;
3443;SDS011;1736;52.068;6.968;2022-07-29T13:45:07;7.77;;;5.20;;
3443;SDS011;1736;52.068;6.968;2022-07-29T13:47:35;6.90;;;5.20;;
3443;SDS011;1736;52.068;6.968;2022-07-29T13:50:02;7.63;;;5.37;;
3443;SDS011;1736;52.068;6.968;2022-07-29T13:52:32;9.23;;;4.67;;
3443;SDS011;1736;52.068;6.968;2022-07-29T13:54:59;8.63;;;4.57;;
3443;SDS011;1736;52.068;6.968;2022-07-29T13:57:26;6.03;;;4.57;;
3443;SDS011;1736;52.068;6.968;2022-07-29T13:59:53;16.30;;;5.93;;
3443;SDS011;1736;52.068;6.968;2022-07-29T14:02:19;10.63;;;4.80;;
3443;SDS011;1736;52.068;6.968;2022-07-29T14:04:46;5.90;;;3.93;;
3443;SDS011;1736;52.068;6.968;2022-07-29T14:07:13;8.70;;;4.87;;
3443;SDS011;1736;52.068;6.968;2022-07-29T14:09:41;6.37;;;4.60;;
3443;SDS011;1736;52.068;6.968;2022-07-29T14:12:07;6.87;;;3.80;;
3443;SDS011;1736;52.068;6.968;2022-07-29T14:14:34;8.43;;;4.50;;
3443;SDS011;1736;52.068;6.968;2022-07-29T14:17:01;8.07;;;4.77;;
3443;SDS011;1736;52.068;6.968;2022-07-29T14:19:28;7.77;;;4.70;;
3443;SDS011;1736;52.068;6.968;2022-07-29T14:21:54;5.80;;;4.40;;
3443;SDS011;1736;52.068;6.968;2022-07-29T14:24:21;6.00;;;4.70;;
3443;SDS011;1736;52.068;6.968;2022-07-29T14:26:48;6.60;;;4.63;;
3443;SDS011;1736;52.068;6.968;2022-07-29T14:29:15;5.23;;;4.33;;
3443;SDS011;1736;52.068;6.968;2022-07-29T14:31:42;6.13;;;4.50;;
3443;SDS011;1736;52.068;6.968;2022-07-29T14:34:08;11.10;;;4.37;;
3443;SDS011;1736;52.068;6.968;2022-07-29T14:36:35;7.70;;;4.57;;
3443;SDS011;1736;52.068;6.968;2022-07-29T14:39:01;9.53;;;4.60;;
3443;SDS011;1736;52.068;6.968;2022-07-29T14:41:28;6.67;;;3.93;;
3443;SDS011;1736;52.068;6.968;2022-07-29T14:43:56;7.50;;;4.27;;
3443;SDS011;1736;52.068;6.968;2022-07-29T14:46:25;5.20;;;4.33;;
3443;SDS011;1736;52.068;6.968;2022-07-29T14:48:52;10.60;;;4.70;;
3443;SDS011;1736;52.068;6.968;2022-07-29T14:51:18;7.90;;;4.50;;
3443;SDS011;1736;52.068;6.968;2022-07-29T14:53:45;6.30;;;4.13;;
3443;SDS011;1736;52.068;6.968;2022-07-29T14:56:11;7.37;;;5.30;;
3443;SDS011;1736;52.068;6.968;2022-07-29T14:58:38;6.63;;;4.87;;
3443;SDS011;1736;52.068;6.968;2022-07-29T15:01:06;6.27;;;4.70;;
3443;SDS011;1736;52.068;6.968;2022-07-29T15:03:32;8.50;;;4.93;;
3443;SDS011;1736;52.068;6.968;2022-07-29T15:05:59;11.00;;;4.90;;
3443;SDS011;1736;52.068;6.968;2022-07-29T15:08:25;7.07;;;4.17;;
3443;SDS011;1736;52.068;6.968;2022-07-29T15:10:54;6.60;;;4.50;;
3443;SDS011;1736;52.068;6.968;2022-07-29T15:13:22;7.53;;;4.80;;
3443;SDS011;1736;52.068;6.968;2022-07-29T15:15:49;6.03;;;4.33;;
3443;SDS011;1736;52.068;6.968;2022-07-29T15:18:17;8.10;;;5.20;;
3443;SDS011;1736;52.068;6.968;2022-07-29T15:20:43;11.07;;;5.03;;
3443;SDS011;1736;52.068;6.968;2022-07-29T15:23:11;7.87;;;5.17;;
3443;SDS011;1736;52.068;6.968;2022-07-29T15:25:37;6.63;;;5.00;;
3443;SDS011;1736;52.068;6.968;2022-07-29T15:28:04;15.07;;;5.80;;
3443;SDS011;1736;52.068;6.968;2022-07-29T15:30:33;10.17;;;5.67;;
3443;SDS011;1736;52.068;6.968;2022-07-29T15:33:05;13.00;;;5.57;;
3443;SDS011;1736;52.068;6.968;2022-07-29T15:35:34;8.07;;;4.93;;
3443;SDS011;1736;52.068;6.968;2022-07-29T15:38:00;7.53;;;3.63;;